TAF EPSY 051130Z 0512/0521 22010KT CAVOK=